Mark Zardes

Scout - New York City
20 Feb 2028
Sunday
Process

Personality

Adaptability (13) Ambition (13) Controversy (12) Loyalty (6) Pressure (7) Professionalism (18) Sportsmanship (10) Temperament (5)

Profile

Coaching Style Democratic
License Continental A
Determination 10
Man Management 7
Motivating 11
Discipline 11
Job Satisfaction
100%
Fatigue
0%
Role Scout
Wage 103.5K p/w
Contract 14.03.2028

Performance

Behaviour Good
Training Effectiveness
38%
Player Development
60%
Injury Prevention
60%
Tactical Implementation
35%

Recent Events

Recommended a transfer target now
Recommended a transfer target now
Recommended a transfer target now
Attended a recruitment meeting now
Contract negotiation started now
Contract negotiation started now
Contract negotiation started now
Contract negotiation started now

Currently Monitoring

163
Player Club Status Ability Confidence Watched Last Observed Latest Vote
Ayden Heaven Luton Town Active 145 / 154 40% 8 18.02.2028 -
Giovanni Leoni Bradford City Active 140 / 142 40% 6 18.02.2028 -
Kevin Schade Brentford Active 155 / 156 40% 1 13.02.2028 -
Jayden Danns Wigan Athletic Active 135 / 136 40% 1 13.02.2028 -
Daniel Banjaqui Benfica Active 123 / 131 40% 2 10.02.2028 -
Jorthy Mokio ADO Den Haag Active 133 / 135 40% 1 10.02.2028 -
Ernie Weaver AFC Wimbledon Active 119 / 121 40% 5 08.02.2028 -
Owen Foye Swindon Town Active 85 / 92 40% 2 08.02.2028 -
Esquerdinha Shrewsbury Town Active 123 / 125 40% 5 07.02.2028 -
Luka Vušković Manchester United Active 144 / 156 40% 2 07.02.2028 -
Josh Nichols Tranmere Rovers Active 117 / 128 40% 6 20.01.2028 -
Noahkai Banks Hamburger SV Active 138 / 142 40% 1 20.01.2028 -
Keagan Phiri Platinum Stars Active 105 / 107 40% 3 19.01.2028 -
Joel McGregor Swindon Town Active 96 / 103 40% 5 15.01.2028 -
Jofre Torrents Ajax Active 133 / 135 40% 2 15.01.2028 -
Jorrel Hato Chelsea Active 155 / 161 40% 3 15.01.2028 -
Myles Lewis-Skelly Birmingham Active 151 / 159 40% 6 14.01.2028 -
Dayann Methalie Aston Villa Active 137 / 146 40% 1 14.01.2028 -
Rivaldo Grobler Free State Stars Active 106 / 106 40% 2 13.01.2028 -
Jayden Joseph Bradford City Active 95 / 99 40% 1 13.01.2028 -
Trey Nyoni Rotherham United Active 136 / 141 40% 6 12.01.2028 -
Luis Otávio Colorado Rapids Active 117 / 121 40% 8 12.01.2028 -
Josh King Chelsea Active 145 / 152 40% 12 11.01.2028 -
Abubakar Adams Aduana Stars Active 77 / 87 40% 1 10.01.2028 -
Harrison Armstrong Everton Active 133 / 140 40% 1 08.01.2028 -
Ricky Atletico Venezuela Active 100 / 108 40% 3 03.01.2028 -
Hosea Michael Remo Stars Active 82 / 89 40% 2 01.01.2028 -
David Valencia Alianza Petrolera Active 132 / 132 40% 3 01.01.2028 -
Joel Ezra Enyimba Active 92 / 98 40% 5 25.12.2027 -
Mikkel Hope Haugesund Active 96 / 105 40% 3 25.12.2027 -
Marvelous Freedom Ikorodu City Active 98 / 90 40% 3 23.12.2027 -
Joe Johnson Barnet Active 103 / 108 40% 3 23.12.2027 -
Juan Camilo Córdoba Deportivo Pereira Active 81 / 86 40% 2 22.12.2027 -
Onuorah Onyedika Kun Khalifat Active 84 / 81 40% 3 22.12.2027 -
Olaniyi Saheed Kwara United Active 93 / 97 40% 3 22.12.2027 -
Caleb Yirenkyi Coventry City Active 137 / 145 40% 8 21.12.2027 -
Christos Mouzakitis Hull City Active 133 / 143 40% 9 19.12.2027 -
Tiago Parente Benfica Active 105 / 112 40% 2 17.12.2027 -
Archie Gray Derby County Active 152 / 153 40% 4 13.12.2027 -
Mads Bomholt Stabaek Active 109 / 117 40% 1 13.12.2027 -
Lucas Camejo River Plate Active 84 / 85 40% 3 06.12.2027 -
Hervin Goyes Deportivo Pasto Active 107 / 114 40% 3 09.11.2027 -
David Damboama El-Kanemi Warriors Active 90 / 97 40% 4 09.11.2027 -
Ronan Kpakio Cardiff City Active 117 / 126 40% 2 09.11.2027 -
Matthew Litherland Rotherham United Active 113 / 123 40% 1 18.10.2027 -
Gift Udoh Ikorodu City Active 95 / 89 40% 2 13.09.2027 -
Godwin Oham Warri Wolves Active 88 / 90 40% 2 10.09.2027 -
Chibueze Oputa Rangers International Active 80 / 88 40% 2 10.09.2027 -
Esteban de Lima Tacuarembo Active 87 / 94 40% 1 10.09.2027 -
Finley McAllister Grimsby Town Active 92 / 98 40% 5 02.08.2027 -
Kazunari Kita Real Sociedad Active 106 / 111 40% 3 02.08.2027 -
Keagan Tau Ajax Cape Town Active 103 / 103 40% 2 26.07.2027 -
Anton Stach Leeds United Active 153 / 153 40% 1 16.07.2027 -
Callum Doyle Wrexham Active 132 / 137 40% 1 16.07.2027 -
Pedro de la Vega FC Dallas Active 133 / 134 66% 1 08.07.2027 Approve
Facundo Torres LOSC Lille Active 134 / 134 67% 1 08.07.2027 Approve
Stanislav Agkatsev Sunderland Active 132 / 133 66% 1 08.07.2027 Approve
Lorent Tolaj Plymouth Argyle Active 120 / 119 40% 1 07.07.2027 -
Thiago Brentford Active 148 / 146 40% 1 07.07.2027 -
Themba Ngcobo SuperSport United Active 120 / 115 40% 1 07.07.2027 -
Milan van Ewijk Mansfield Town Active 139 / 130 40% 1 07.07.2027 -
Shea Charles Southampton Active 137 / 143 40% 1 07.07.2027 -
Riley Owen Trento Active 109 / 108 40% 3 06.07.2027 -
Edwin Asamoah Berekum Chelsea Active 76 / 91 40% 1 04.07.2027 -
Daniel Dennis Ikorodu City Active 85 / 103 40% 1 04.07.2027 -
Felix Afful Liberty Professionals Active 91 / 85 40% 2 02.07.2027 -
Sascha Britschgi Padova Active 122 / 133 40% 3 02.07.2027 -
Daniel Kelly Oxford United Active 118 / 117 40% 5 01.07.2027 -
Davide Bartesaghi AC Milan Active 129 / 140 40% 3 01.07.2027 -
Christ Inao Oulaï Fiorentina Active 137 / 145 40% 3 28.06.2027 -
Lewis Miley Chelsea Active 142 / 147 40% 3 28.06.2027 -
Issa Yusuf Shooting Stars Active 90 / 96 40% 1 27.06.2027 -
Jan Bürger Gillingham Active 116 / 124 40% 3 26.06.2027 -
Fuzy Taylor Medeama Active 72 / 84 40% 2 25.06.2027 -
Zane Albarus Cambridge United Active 97 / 103 40% 2 23.06.2027 -
Ezra Mayers West Ham United Active 121 / 127 40% 1 16.06.2027 -
David Atiemo Liberty Professionals Active 81 / 80 40% 1 15.06.2027 -
Johan Manzambi Newcastle United Active 139 / 150 40% 2 10.06.2027 -
Adrien Truffert Bournemouth Active 148 / 153 40% 5 12.02.2027 -
Ryan Sessegnon Fulham Active 149 / 148 40% 4 12.02.2027 -
Jacques Ekomié Wrexham Active 131 / 130 40% 1 12.02.2027 -
Dara O'Shea Ipswich Town Active 136 / 133 40% 2 11.02.2027 -
Hamza Choudhury Leicester City Active 126 / 123 40% 1 11.02.2027 -
Aidan Morris Middlesbrough Active 127 / 127 40% 1 11.02.2027 -
Max Bird Birmingham Active 128 / 133 40% 2 10.02.2027 -
Ethan Galbraith Swansea City Active 128 / 134 40% 3 10.02.2027 -
Welington Southampton Active 130 / 131 40% 1 10.02.2027 -
Ronald Swansea City Active 127 / 127 40% 1 10.02.2027 -
Takehiro Tomiyasu Crystal Palace Active 147 / 148 40% 1 08.02.2027 Needs More Info
Brodie Spencer Oxford United Active 119 / 124 40% 1 06.02.2027 -
Juanlu Bournemouth Active 150 / 145 40% 1 06.02.2027 -
Saša Lukić Ipswich Town Active 146 / 138 40% 2 05.02.2027 -
Antonee Robinson Fulham Active 149 / 152 40% 1 05.02.2027 -
Teden Mengi Luton Town Active 128 / 124 40% 2 02.02.2027 -
Anel Ahmedhodžić Burnley Active 134 / 133 40% 1 02.02.2027 -
Yehor Yarmoliuk Brentford Active 144 / 153 40% 1 02.02.2027 -
Williams Manyama SuperSport United Active 121 / 117 40% 5 01.02.2027 -
Kristoffer Lund Birmingham Active 129 / 124 40% 1 01.02.2027 -
Noah Sadiki Sunderland Active 140 / 147 40% 1 01.02.2027 Needs More Info
Quinten Timber Crystal Palace Active 155 / 147 40% 3 28.01.2027 -
Florentino Luís Ipswich Town Active 145 / 139 40% 1 28.01.2027 -
Luke McNally Bristol City Active 129 / 130 40% 1 27.01.2027 -
James Morris Leyton Orient Active 118 / 113 40% 1 26.01.2027 -
Japhet Tanganga Sheffield United Active 131 / 129 40% 1 24.01.2027 -
Tariq Lamptey Queens Park Rangers Active 136 / 136 40% 1 22.01.2027 -
Tyler Adams Bournemouth Active 152 / 152 40% 1 22.01.2027 -
Siyanda Msani University of Pretoria Active 100 / 102 40% 1 21.01.2027 -
Thabiso Monyane Kaizer Chiefs Active 104 / 102 40% 1 18.01.2027 -
Ayanda Jiyane Golden Arrows Active 101 / 110 40% 1 18.01.2027 -
Christian Krasnodar Active 140 / 138 40% 4 17.01.2027 -
Álex Centelles Levski Active 133 / 120 40% 2 17.01.2027 -
Rubens Dinamo Moscow Active 124 / 127 40% 2 16.01.2027 -
Khuliso Mudau Mamelodi Sundowns Active 125 / 131 40% 4 15.01.2027 -
Victor Parada Spartak Moscow Active 132 / 117 40% 2 15.01.2027 -
Rúben Neves Al-Hilal Active 149 / 148 40% 1 15.01.2027 -
Erick Jali Black Aces Active 110 / 109 40% 1 14.01.2027 -
Lucas Da Cunha Como Active 143 / 142 40% 1 10.01.2027 -
Malebogo Modise Polokwane City Active 101 / 101 40% 2 08.01.2027 -
Brooklyn Poggenpoel Maritzburg United Active 115 / 109 40% 1 04.01.2027 -
Gift Ngcobo Ajax Cape Town Active 130 / 132 40% 3 02.01.2027 -
Aubrey Modiba Mamelodi Sundowns Active 121 / 127 40% 3 02.01.2027 -
Andile Manyama SuperSport United Active 125 / 131 40% 1 02.01.2027 -
Nicolò Rovella Lazio Active 155 / 154 40% 1 30.12.2026 -
Nuno Tavares Lazio Active 142 / 147 40% 1 30.12.2026 -
Yves Bissouma Tottenham Active 145 / 142 40% 3 24.12.2026 -
Mohamed Simakan Al-Nassr Active 147 / 134 40% 1 22.12.2026 -
Bradley Tau SuperSport United Active 132 / 124 40% 7 20.12.2026 -
Yacine Adli Al-Shabab Active 136 / 141 40% 1 12.12.2026 -
Ilja Vakhania Krasnodar Active 112 / 121 40% 1 08.12.2026 -
Jaïro Riedewald Sheffield United Active 119 / 117 40% 1 08.12.2026 -
Nobel Mendy Hull City Active 134 / 132 40% 5 05.12.2026 -
Mandla Erasmus SuperSport United Active 120 / 116 40% 5 05.12.2026 -
João Gomes Aston Villa Active 141 / 144 40% 5 05.12.2026 -
Gustavo Mantuan Zenit Active 137 / 129 40% 2 03.12.2026 -
Caolan Boyd-Munce Wycombe Wanderers Active 122 / 118 40% 3 01.12.2026 -
Alexandr Chernikov Krasnodar Active 132 / 124 40% 1 30.11.2026 -
Nazareno Colombo Racing Club Active 122 / 130 40% 1 25.11.2026 -
Leandro Lozano Boca Juniors Active 119 / 123 40% 1 24.11.2026 -
Jack Currie Oxford United Active 118 / 118 40% 1 24.11.2026 -
Max Conway Bolton Wanderers Active 113 / 119 40% 1 24.11.2026 -
Maxim De Cuyper Brighton Active 139 / 138 40% 4 23.11.2026 -
Nico Elvedi Leeds United Active 137 / 137 40% 2 17.11.2026 -
Sergio Reguilón Inter Miami CF Active 140 / 136 40% 2 17.11.2026 -
Femi Seriki Sheffield United Active 130 / 124 40% 1 15.11.2026 -
Conrad Wallem Austria Wien Active 127 / 130 40% 3 06.11.2026 -
Odel Offiah Preston Active 117 / 119 40% 1 03.11.2026 -
Obinna Nwobodo FC Cincinnati Active 125 / 131 40% 1 30.09.2026 -
Joel Latibeaudiere Coventry City Active 123 / 122 40% 1 27.09.2026 -
Andrés Herrera Columbus Crew Active 117 / 117 40% 2 26.09.2026 -
Jake Davis Sporting Kansas City Active 115 / 120 40% 1 26.09.2026 -
Facundo Mura Inter Miami CF Active 127 / 120 40% 2 23.09.2026 -
Juan Manuel Sanabria Real Salt Lake Active 129 / 125 40% 1 23.09.2026 -
Marcel Hartel St. Louis CITY SC Active 133 / 128 40% 1 20.09.2026 -
Lasse Berg Johnsen Sporting Kansas City Active 121 / 128 40% 1 17.09.2026 -
Thalente Mbatha Orlando Pirates Active 114 / 121 40% 1 15.09.2026 -
Miles Robinson FC Cincinnati Active 138 / 133 40% 1 12.09.2026 -
Costinha Brighton Active 130 / 123 40% 1 12.09.2026 -
Anton Salétros Chicago Fire Active 132 / 124 40% 1 09.09.2026 -
Eduard Löwen San Jose Earthquakes Active 128 / 127 40% 1 08.09.2026 -
Fabián Paris Saint-Germain Active 159 / 165 40% 1 07.09.2026 -
Hosei Kijima DC United Active 100 / 109 79% 1 03.08.2026 Approve
Frank Onyeka Coventry City Active 135 / 135 40% 1 01.08.2026 -
Youri Tielemans Manchester United Active 155 / 160 40% 1 01.08.2026 -